createdAt,value
2019-05-20T00:01:54.637Z,26.73
2019-05-20T00:04:23.587Z,29.87
2019-05-20T00:06:52.479Z,27.27
2019-05-20T00:09:21.341Z,33.57
2019-05-20T00:11:50.399Z,32.90
2019-05-20T00:14:20.064Z,31.37
2019-05-20T00:16:48.959Z,30.33
2019-05-20T00:19:17.829Z,30.47
2019-05-20T00:21:46.838Z,33.87
2019-05-20T00:24:15.711Z,35.00
2019-05-20T00:26:44.575Z,35.37
2019-05-20T00:29:13.643Z,25.03
2019-05-20T00:31:42.480Z,18.37
2019-05-20T00:34:11.351Z,28.30
2019-05-20T00:36:40.264Z,32.30
2019-05-20T00:39:19.866Z,29.83
2019-05-20T00:41:49.430Z,28.87
2019-05-20T00:44:19.041Z,36.17
2019-05-20T00:46:47.886Z,33.33
2019-05-20T00:49:16.790Z,34.13
2019-05-20T00:51:45.678Z,30.50
2019-05-20T00:54:14.805Z,28.80
2019-05-20T00:56:43.812Z,27.27
2019-05-20T00:59:12.685Z,22.87
2019-05-20T01:01:41.526Z,24.47
2019-05-20T01:04:10.445Z,21.67
2019-05-20T01:06:39.289Z,23.13
2019-05-20T01:09:08.452Z,22.00
2019-05-20T01:11:37.358Z,23.70
2019-05-20T01:14:06.311Z,24.10
2019-05-20T01:16:35.170Z,32.83
2019-05-20T01:19:04.032Z,30.00
2019-05-20T01:21:32.862Z,39.17
2019-05-20T01:24:01.715Z,31.40
2019-05-20T01:26:30.667Z,29.93
2019-05-20T01:28:59.513Z,20.63
2019-05-20T01:31:28.367Z,22.77
2019-05-20T01:33:57.268Z,18.63
2019-05-20T01:36:26.125Z,19.63
2019-05-20T01:38:54.969Z,20.90
2019-05-20T01:41:23.879Z,17.20
2019-05-20T01:43:52.741Z,18.87
2019-05-20T01:46:21.583Z,18.60
2019-05-20T01:48:50.539Z,18.10
2019-05-20T01:51:19.394Z,17.57
2019-05-20T01:53:48.249Z,19.20
2019-05-20T01:56:17.137Z,18.13
2019-05-20T01:58:45.984Z,16.50
2019-05-20T02:01:14.873Z,16.23
2019-05-20T02:03:43.772Z,16.57
2019-05-20T02:06:12.615Z,18.20
2019-05-20T02:08:41.456Z,13.23
2019-05-20T02:11:10.395Z,17.07
2019-05-20T02:13:52.818Z,18.77
2019-05-20T02:16:23.605Z,18.00
2019-05-20T02:18:52.440Z,17.20
2019-05-20T02:21:21.409Z,13.23
2019-05-20T02:23:50.292Z,20.80
2019-05-20T02:26:19.149Z,15.00
2019-05-20T02:28:47.999Z,13.67
2019-05-20T02:31:17.011Z,14.83
2019-05-20T02:33:51.444Z,13.83
2019-05-20T02:36:17.187Z,14.87
2019-05-20T02:38:46.064Z,14.60
2019-05-20T02:41:14.898Z,14.63
2019-05-20T02:43:43.839Z,15.87
2019-05-20T02:46:12.762Z,13.63
2019-05-20T02:48:41.554Z,14.77
2019-05-20T02:51:10.361Z,13.77
2019-05-20T02:53:39.264Z,12.23
2019-05-20T02:56:08.120Z,14.97
2019-05-20T02:58:36.961Z,13.90
2019-05-20T03:01:05.852Z,14.37
2019-05-20T03:03:34.695Z,16.60
2019-05-20T03:06:03.486Z,14.67
2019-05-20T03:08:32.350Z,13.83
2019-05-20T03:11:01.198Z,12.67
2019-05-20T03:13:30.035Z,15.93
2019-05-20T03:15:58.954Z,14.73
2019-05-20T03:18:27.794Z,20.30
2019-05-20T03:20:56.651Z,16.13
2019-05-20T03:23:25.512Z,18.17
2019-05-20T03:25:54.397Z,14.80
2019-05-20T03:28:23.244Z,12.43
2019-05-20T03:30:52.145Z,12.70
2019-05-20T03:33:20.993Z,15.80
2019-05-20T03:35:49.885Z,13.73
2019-05-20T03:38:18.853Z,13.20
2019-05-20T03:40:47.716Z,15.37
2019-05-20T03:43:16.581Z,14.77
2019-05-20T03:45:45.474Z,16.20
2019-05-20T03:48:14.340Z,17.07
2019-05-20T03:50:43.181Z,15.47
2019-05-20T03:53:12.089Z,13.30
2019-05-20T03:55:40.937Z,20.23
2019-05-20T03:58:13.308Z,16.37
2019-05-20T04:00:45.528Z,15.07
2019-05-20T04:03:15.103Z,16.63
2019-05-20T04:05:44.434Z,13.77
2019-05-20T04:08:13.375Z,13.30
2019-05-20T04:10:42.207Z,13.50
2019-05-20T04:13:11.060Z,12.37
2019-05-20T04:15:39.974Z,12.90
2019-05-20T04:18:08.879Z,10.77
2019-05-20T04:20:37.770Z,13.70
2019-05-20T04:23:06.797Z,13.43
2019-05-20T04:25:35.640Z,14.03
2019-05-20T04:28:04.803Z,13.30
2019-05-20T04:30:33.712Z,11.20
2019-05-20T04:33:02.569Z,13.23
2019-05-20T04:35:31.398Z,12.50
2019-05-20T04:38:00.390Z,12.37
2019-05-20T04:40:29.245Z,12.93
2019-05-20T04:42:58.213Z,11.13
2019-05-20T04:45:27.126Z,15.03
2019-05-20T04:47:55.996Z,17.53
2019-05-20T04:50:24.858Z,14.30
2019-05-20T04:52:53.743Z,13.60
2019-05-20T04:55:22.592Z,12.30
2019-05-20T04:57:51.435Z,29.17
2019-05-20T05:00:35.355Z,12.03
2019-05-20T05:03:04.383Z,11.83
2019-05-20T05:05:37.797Z,16.20
2019-05-20T05:08:03.763Z,17.23
2019-05-20T05:10:32.618Z,11.33
2019-05-20T05:13:01.529Z,13.63
2019-05-20T05:15:30.430Z,17.67
2019-05-20T05:17:59.281Z,13.97
2019-05-20T05:20:28.133Z,11.70
2019-05-20T05:22:57.036Z,11.50
2019-05-20T05:25:25.898Z,15.80
2019-05-20T05:27:54.701Z,13.83
2019-05-20T05:30:24.201Z,17.43
2019-05-20T05:32:53.043Z,14.80
2019-05-20T05:35:21.902Z,19.47
2019-05-20T05:37:50.866Z,13.77
2019-05-20T05:40:21.222Z,15.37
2019-05-20T05:42:50.067Z,20.50
2019-05-20T05:45:21.916Z,13.80
2019-05-20T05:47:50.781Z,12.43
2019-05-20T05:50:19.707Z,15.60
2019-05-20T05:52:48.804Z,18.00
2019-05-20T05:55:17.654Z,12.43
2019-05-20T05:57:46.502Z,11.17
2019-05-20T06:00:16.874Z,14.50
2019-05-20T06:02:45.851Z,13.83
2019-05-20T06:05:14.798Z,12.37
2019-05-20T06:07:43.791Z,17.83
2019-05-20T06:10:13.330Z,9.63
2019-05-20T06:12:42.170Z,10.33
2019-05-20T06:15:11.771Z,6.97
2019-05-20T06:17:40.612Z,8.03
2019-05-20T06:20:09.751Z,8.00
2019-05-20T06:22:38.640Z,6.70
2019-05-20T06:25:07.979Z,10.23
2019-05-20T06:27:36.846Z,7.13
2019-05-20T06:30:10.946Z,9.07
2019-05-20T06:32:39.838Z,9.77
2019-05-20T06:35:09.436Z,7.17
2019-05-20T06:37:52.447Z,6.60
2019-05-20T06:40:21.408Z,11.03
2019-05-20T06:42:50.306Z,11.20
2019-05-20T06:45:19.474Z,7.73
2019-05-20T06:47:48.324Z,9.13
2019-05-20T06:50:17.170Z,7.80
2019-05-20T06:52:46.169Z,6.57
2019-05-20T06:55:15.270Z,7.20
2019-05-20T06:57:44.087Z,6.40
2019-05-20T07:00:13.267Z,6.53
2019-05-20T07:02:42.136Z,6.53
2019-05-20T07:05:11.382Z,5.43
2019-05-20T07:07:40.325Z,6.47
2019-05-20T07:10:09.487Z,7.60
2019-05-20T07:12:41.462Z,6.77
2019-05-20T07:15:10.015Z,6.45
2019-05-20T07:17:38.845Z,5.80
2019-05-20T07:20:07.905Z,5.95
2019-05-20T07:22:53.874Z,5.90
2019-05-20T07:25:07.824Z,6.75
2019-05-20T07:27:36.663Z,4.83
2019-05-20T07:30:09.232Z,4.97
2019-05-20T07:32:38.089Z,7.78
2019-05-20T07:35:07.935Z,19.48
2019-05-20T07:37:36.853Z,4.22
2019-05-20T07:40:07.316Z,3.07
2019-05-20T07:42:36.435Z,4.47
2019-05-20T07:45:07.425Z,4.87
2019-05-20T07:47:36.582Z,6.70
2019-05-20T07:50:10.226Z,5.87
2019-05-20T07:52:39.438Z,7.30
2019-05-20T07:55:08.902Z,3.17
2019-05-20T07:57:40.832Z,4.93
2019-05-20T08:00:10.443Z,4.80
2019-05-20T08:02:39.680Z,5.87
2019-05-20T08:05:09.402Z,5.97
2019-05-20T08:07:51.285Z,4.80
2019-05-20T08:10:09.352Z,3.53
2019-05-20T08:12:38.200Z,5.55
2019-05-20T08:15:08.315Z,4.67
2019-05-20T08:17:37.485Z,2.90
2019-05-20T08:20:07.981Z,7.17
2019-05-20T08:22:36.879Z,4.45
2019-05-20T08:25:09.010Z,6.35
2019-05-20T08:27:37.858Z,2.55
2019-05-20T08:30:08.387Z,2.65
2019-05-20T08:32:37.258Z,2.55
2019-05-20T08:35:07.620Z,4.35
2019-05-20T08:37:45.236Z,3.65
2019-05-20T08:40:07.311Z,4.12
2019-05-20T08:42:36.220Z,4.28
2019-05-20T08:45:08.934Z,5.25
2019-05-20T08:47:37.801Z,5.28
2019-05-20T08:50:14.355Z,2.75
2019-05-20T08:52:38.806Z,8.80
2019-05-20T08:55:07.765Z,4.28
2019-05-20T08:57:36.601Z,5.97
2019-05-20T09:00:06.972Z,3.80
2019-05-20T09:02:35.873Z,4.10
2019-05-20T09:05:06.119Z,3.80
2019-05-20T09:07:35.060Z,3.17
2019-05-20T09:10:04.499Z,2.52
2019-05-20T09:12:33.334Z,4.35
2019-05-20T09:15:02.235Z,3.33
2019-05-20T09:17:31.225Z,2.17
2019-05-20T09:20:00.054Z,3.62
2019-05-20T09:22:28.950Z,5.72
2019-05-20T09:24:57.957Z,6.78
2019-05-20T09:27:26.841Z,3.87
2019-05-20T09:29:55.764Z,3.12
2019-05-20T09:32:24.592Z,3.70
2019-05-20T09:34:53.441Z,6.92
2019-05-20T09:37:22.328Z,3.87
2019-05-20T09:39:51.159Z,4.78
2019-05-20T09:42:20.002Z,3.40
2019-05-20T09:44:48.872Z,3.45
2019-05-20T09:47:17.708Z,4.90
2019-05-20T09:49:46.612Z,3.67
2019-05-20T09:52:15.548Z,2.87
2019-05-20T09:54:45.654Z,4.90
2019-05-20T09:57:14.754Z,5.00
2019-05-20T09:59:43.920Z,3.75
2019-05-20T10:02:12.913Z,9.08
2019-05-20T10:04:41.756Z,4.55
2019-05-20T10:07:10.637Z,2.58
2019-05-20T10:09:39.498Z,4.20
2019-05-20T10:12:08.347Z,10.10
2019-05-20T10:14:37.252Z,7.90
2019-05-20T10:17:06.130Z,5.87
2019-05-20T10:19:34.965Z,5.73
2019-05-20T10:22:03.871Z,5.43
2019-05-20T10:24:32.707Z,5.47
2019-05-20T10:27:01.564Z,6.80
2019-05-20T10:29:30.451Z,7.87
2019-05-20T10:31:59.275Z,6.60
2019-05-20T10:34:28.112Z,3.67
2019-05-20T10:36:57.055Z,5.63
2019-05-20T10:39:25.897Z,6.37
2019-05-20T10:41:54.736Z,6.17
2019-05-20T10:44:23.634Z,4.97
2019-05-20T10:46:52.469Z,6.80
2019-05-20T10:49:21.312Z,4.73
2019-05-20T10:51:50.202Z,4.87
2019-05-20T10:54:19.056Z,5.20
2019-05-20T10:56:47.886Z,5.70
2019-05-20T10:59:16.798Z,4.50
2019-05-20T11:01:45.646Z,4.73
2019-05-20T11:04:14.472Z,3.17
2019-05-20T11:06:43.686Z,5.63
2019-05-20T11:09:14.419Z,5.90
2019-05-20T11:11:43.024Z,4.10
2019-05-20T11:14:11.932Z,3.77
2019-05-20T11:16:40.792Z,4.87
2019-05-20T11:19:09.660Z,3.13
2019-05-20T11:21:38.562Z,7.70
2019-05-20T11:24:07.327Z,10.37
2019-05-20T11:26:36.152Z,6.40
2019-05-20T11:29:05.038Z,6.03
2019-05-20T11:31:33.889Z,6.17
2019-05-20T11:34:03.038Z,7.90
2019-05-20T11:36:31.919Z,7.10
2019-05-20T11:39:00.782Z,9.13
2019-05-20T11:41:52.122Z,7.50
2019-05-20T11:44:01.032Z,6.80
2019-05-20T11:46:29.889Z,5.70
2019-05-20T11:48:58.766Z,7.27
2019-05-20T11:51:27.651Z,13.17
2019-05-20T11:53:57.984Z,9.90
2019-05-20T11:56:26.828Z,3.53
2019-05-20T11:58:55.729Z,4.77
2019-05-20T12:01:24.598Z,5.27
2019-05-20T12:03:53.675Z,7.37
2019-05-20T12:06:23.317Z,6.90
2019-05-20T12:08:52.219Z,7.47
2019-05-20T12:11:21.052Z,5.73
2019-05-20T12:13:49.948Z,4.93
2019-05-20T12:16:18.835Z,4.63
2019-05-20T12:18:47.791Z,5.83
2019-05-20T12:21:16.744Z,5.23
2019-05-20T12:23:45.542Z,5.50
2019-05-20T12:26:14.396Z,2.97
2019-05-20T12:28:43.302Z,7.17
2019-05-20T12:31:12.158Z,2.50
2019-05-20T12:33:41.005Z,2.17
2019-05-20T12:36:10.006Z,3.57
2019-05-20T12:38:40.632Z,3.53
2019-05-20T12:41:09.451Z,2.20
2019-05-20T12:43:38.357Z,3.10
2019-05-20T12:46:07.201Z,2.37
2019-05-20T12:48:36.045Z,4.67
2019-05-20T12:51:04.964Z,5.30
2019-05-20T12:53:33.795Z,4.27
2019-05-20T12:56:02.645Z,11.00
2019-05-20T12:58:31.553Z,6.53
2019-05-20T13:01:00.407Z,9.63
2019-05-20T13:03:29.261Z,5.60
2019-05-20T13:05:58.453Z,3.50
2019-05-20T13:08:27.294Z,3.53
2019-05-20T13:10:56.159Z,6.87
2019-05-20T13:13:25.072Z,4.07
2019-05-20T13:15:53.911Z,3.40
2019-05-20T13:18:22.760Z,2.43
2019-05-20T13:20:51.671Z,3.37
2019-05-20T13:23:20.502Z,2.63
2019-05-20T13:25:49.379Z,2.27
2019-05-20T13:28:19.171Z,2.70
2019-05-20T13:30:48.003Z,2.27
2019-05-20T13:33:16.829Z,2.83
2019-05-20T13:35:45.753Z,4.83
2019-05-20T13:38:14.591Z,3.23
2019-05-20T13:40:47.510Z,2.80
2019-05-20T13:43:13.996Z,2.70
2019-05-20T13:45:42.825Z,1.83
2019-05-20T13:48:11.663Z,4.53
2019-05-20T13:50:40.568Z,4.03
2019-05-20T13:53:09.413Z,2.13
2019-05-20T13:55:38.258Z,3.47
2019-05-20T13:58:07.215Z,2.13
2019-05-20T14:00:36.075Z,1.57
2019-05-20T14:03:04.918Z,3.73
2019-05-20T14:05:33.819Z,1.90
2019-05-20T14:08:02.674Z,1.67
2019-05-20T14:10:31.545Z,5.10
2019-05-20T14:13:00.721Z,1.70
2019-05-20T14:15:29.557Z,3.03
2019-05-20T14:17:58.392Z,2.33
2019-05-20T14:20:27.297Z,0.87
2019-05-20T14:22:56.145Z,3.67
2019-05-20T14:25:28.660Z,2.73
2019-05-20T14:27:56.407Z,1.63
2019-05-20T14:30:25.239Z,5.57
2019-05-20T14:32:54.081Z,1.60
2019-05-20T14:35:22.959Z,2.80
2019-05-20T14:37:51.804Z,3.73
2019-05-20T14:40:20.752Z,3.17
2019-05-20T14:42:49.647Z,2.47
2019-05-20T14:45:18.709Z,2.93
2019-05-20T14:47:47.572Z,4.43
2019-05-20T14:50:16.593Z,3.30
2019-05-20T14:52:45.459Z,2.53
2019-05-20T14:55:14.960Z,2.50
2019-05-20T14:57:44.127Z,2.13
2019-05-20T15:00:13.701Z,1.70
2019-05-20T15:02:42.557Z,1.23
2019-05-20T15:05:11.526Z,4.17
2019-05-20T15:07:40.416Z,1.67
2019-05-20T15:10:10.059Z,2.43
2019-05-20T15:12:39.033Z,3.17
2019-05-20T15:15:08.586Z,1.73
2019-05-20T15:17:37.437Z,3.43
2019-05-20T15:20:07.952Z,1.63
2019-05-20T15:22:36.794Z,2.00
2019-05-20T15:25:09.182Z,1.83
2019-05-20T15:27:38.201Z,1.63
2019-05-20T15:30:09.124Z,1.67
2019-05-20T15:32:37.964Z,2.80
2019-05-20T15:35:07.064Z,1.87
2019-05-20T15:37:35.905Z,1.53
2019-05-20T15:40:06.049Z,1.40
2019-05-20T15:42:34.952Z,2.27
2019-05-20T15:45:05.587Z,2.47
2019-05-20T15:47:34.415Z,3.87
2019-05-20T15:50:05.913Z,2.23
2019-05-20T15:52:34.386Z,1.37
2019-05-20T15:55:03.244Z,2.37
2019-05-20T15:57:32.130Z,4.57
2019-05-20T16:00:00.958Z,2.83
2019-05-20T16:02:29.811Z,2.90
2019-05-20T16:04:58.692Z,2.53
2019-05-20T16:07:27.542Z,1.37
2019-05-20T16:09:56.385Z,2.40
2019-05-20T16:12:25.288Z,2.43
2019-05-20T16:14:54.126Z,3.07
2019-05-20T16:17:22.970Z,4.13
2019-05-20T16:19:51.857Z,2.33
2019-05-20T16:22:20.681Z,1.93
2019-05-20T16:24:50.038Z,5.17
2019-05-20T16:27:18.933Z,2.83
2019-05-20T16:30:04.702Z,5.17
2019-05-20T16:32:18.293Z,2.03
2019-05-20T16:34:47.390Z,6.70
2019-05-20T16:37:16.218Z,3.70
2019-05-20T16:39:45.060Z,4.63
2019-05-20T16:42:13.953Z,4.03
2019-05-20T16:44:42.814Z,5.50
2019-05-20T16:47:11.637Z,3.53
2019-05-20T16:49:40.537Z,4.67
2019-05-20T16:52:09.418Z,4.33
2019-05-20T16:54:38.201Z,6.80
2019-05-20T16:57:07.149Z,3.27
2019-05-20T16:59:36.009Z,4.00
2019-05-20T17:02:04.875Z,4.60
2019-05-20T17:04:33.770Z,5.53
2019-05-20T17:07:02.623Z,6.77
2019-05-20T17:09:31.457Z,5.07
2019-05-20T17:12:00.335Z,3.50
2019-05-20T17:14:29.245Z,4.87
2019-05-20T17:16:58.095Z,4.00
2019-05-20T17:19:27.028Z,3.23
2019-05-20T17:21:55.875Z,5.33
2019-05-20T17:24:24.740Z,4.87
2019-05-20T17:26:53.639Z,3.43
2019-05-20T17:29:22.483Z,3.83
2019-05-20T17:31:51.332Z,6.03
2019-05-20T17:34:20.231Z,3.53
2019-05-20T17:36:49.074Z,4.43
2019-05-20T17:39:17.982Z,5.00
2019-05-20T17:41:46.862Z,2.93
2019-05-20T17:44:26.417Z,3.70
2019-05-20T17:46:55.544Z,4.70
2019-05-20T17:49:24.395Z,3.10
2019-05-20T17:51:53.255Z,5.57
2019-05-20T17:54:22.145Z,4.60
2019-05-20T17:56:50.994Z,6.90
2019-05-20T17:59:19.851Z,8.50
2019-05-20T18:01:48.765Z,6.37
2019-05-20T18:04:17.620Z,5.63
2019-05-20T18:06:46.467Z,7.67
2019-05-20T18:09:15.354Z,9.73
2019-05-20T18:11:44.199Z,8.00
2019-05-20T18:14:13.053Z,7.90
2019-05-20T18:16:41.963Z,6.67
2019-05-20T18:19:10.815Z,6.83
2019-05-20T18:21:39.716Z,7.60
2019-05-20T18:24:08.761Z,9.23
2019-05-20T18:26:37.606Z,9.57
2019-05-20T18:29:06.467Z,10.10
2019-05-20T18:31:35.385Z,5.47
2019-05-20T18:34:05.237Z,13.67
2019-05-20T18:36:34.108Z,7.93
2019-05-20T18:39:03.013Z,7.03
2019-05-20T18:41:31.868Z,8.70
2019-05-20T18:44:00.735Z,19.63
2019-05-20T18:46:29.714Z,32.13
2019-05-20T18:49:03.100Z,37.47
2019-05-20T18:51:31.957Z,48.47
2019-05-20T18:54:00.860Z,47.20
2019-05-20T18:56:29.738Z,40.20
2019-05-20T18:58:58.591Z,45.20
2019-05-20T19:01:27.537Z,41.27
2019-05-20T19:03:56.401Z,38.00
2019-05-20T19:06:25.374Z,42.10
2019-05-20T19:08:54.312Z,32.23
2019-05-20T19:11:23.186Z,33.80
2019-05-20T19:13:52.036Z,29.50
2019-05-20T19:16:20.927Z,12.87
2019-05-20T19:18:49.795Z,22.80
2019-05-20T19:21:18.667Z,23.37
2019-05-20T19:23:47.562Z,13.37
2019-05-20T19:26:24.535Z,5.77
2019-05-20T19:28:46.901Z,5.37
2019-05-20T19:31:15.832Z,5.17
2019-05-20T19:33:44.672Z,6.77
2019-05-20T19:36:13.548Z,10.63
2019-05-20T19:38:42.452Z,6.50
2019-05-20T19:41:11.302Z,5.27
2019-05-20T19:43:40.154Z,5.77
2019-05-20T19:46:09.058Z,5.73
2019-05-20T19:48:38.337Z,9.30
2019-05-20T19:51:07.366Z,18.50
2019-05-20T19:53:36.302Z,22.63
2019-05-20T19:56:05.162Z,26.43
2019-05-20T19:58:34.014Z,26.23
2019-05-20T20:01:02.917Z,24.77
2019-05-20T20:03:32.713Z,26.03
2019-05-20T20:06:01.573Z,26.63
2019-05-20T20:08:30.505Z,27.97
2019-05-20T20:10:59.375Z,37.00
2019-05-20T20:13:28.231Z,50.27
2019-05-20T20:15:57.269Z,49.87
2019-05-20T20:18:26.123Z,25.20
2019-05-20T20:20:55.115Z,18.90
2019-05-20T20:23:24.095Z,23.87
2019-05-20T20:25:53.391Z,29.40
2019-05-20T20:28:24.559Z,26.97
2019-05-20T20:31:10.963Z,21.13
2019-05-20T20:34:07.040Z,18.83
2019-05-20T20:36:36.692Z,20.23
2019-05-20T20:39:07.146Z,23.17
2019-05-20T20:41:36.900Z,25.63
2019-05-20T20:44:06.497Z,27.80
2019-05-20T20:46:36.170Z,25.50
2019-05-20T20:49:05.254Z,31.10
2019-05-20T20:51:34.311Z,28.80
2019-05-20T20:54:09.540Z,37.83
2019-05-20T20:56:38.722Z,48.10
2019-05-20T20:59:07.806Z,65.93
2019-05-20T21:01:54.092Z,84.70
2019-05-20T21:04:19.709Z,58.77
2019-05-20T21:06:48.906Z,53.47
2019-05-20T21:09:17.797Z,35.63
2019-05-20T21:11:48.076Z,37.87
2019-05-20T21:14:17.781Z,47.07
2019-05-20T21:16:46.808Z,38.53
2019-05-20T21:19:15.725Z,39.17
2019-05-20T21:21:44.834Z,37.07
2019-05-20T21:24:26.340Z,37.73
2019-05-20T21:27:07.742Z,32.27
2019-05-20T21:29:37.301Z,32.17
2019-05-20T21:32:06.270Z,34.37
2019-05-20T21:34:35.134Z,33.13
2019-05-20T21:37:03.978Z,30.70
2019-05-20T21:39:32.899Z,25.57
2019-05-20T21:42:01.776Z,28.30
2019-05-20T21:44:30.661Z,31.47
2019-05-20T21:46:59.605Z,24.30
2019-05-20T21:49:28.477Z,29.57
2019-05-20T21:51:57.334Z,29.73
2019-05-20T21:54:26.278Z,34.40
2019-05-20T21:56:55.127Z,29.00
2019-05-20T21:59:23.963Z,30.47
2019-05-20T22:01:52.889Z,26.93
2019-05-20T22:04:21.754Z,32.63
2019-05-20T22:06:50.628Z,27.83
2019-05-20T22:09:19.524Z,28.77
2019-05-20T22:11:48.371Z,18.70
2019-05-20T22:14:17.234Z,22.23
2019-05-20T22:16:46.177Z,21.03
2019-05-20T22:19:15.014Z,19.90
2019-05-20T22:21:48.248Z,23.83
2019-05-20T22:24:17.149Z,21.83
2019-05-20T22:26:46.009Z,20.17
2019-05-20T22:29:14.859Z,26.30
2019-05-20T22:31:43.786Z,31.67
2019-05-20T22:34:12.667Z,15.40
2019-05-20T22:36:41.503Z,16.80
2019-05-20T22:39:10.425Z,19.33
2019-05-20T22:41:39.255Z,18.13
2019-05-20T22:44:08.159Z,18.23
2019-05-20T22:46:37.053Z,21.07
2019-05-20T22:49:05.915Z,16.80
2019-05-20T22:51:37.333Z,18.83
2019-05-20T22:54:16.510Z,15.03
2019-05-20T22:56:45.027Z,14.97
2019-05-20T22:59:13.893Z,17.10
2019-05-20T23:01:42.803Z,14.43
2019-05-20T23:04:11.678Z,16.67
2019-05-20T23:06:40.553Z,13.57
2019-05-20T23:09:10.790Z,13.47
2019-05-20T23:11:39.942Z,13.47
2019-05-20T23:14:08.809Z,14.67
2019-05-20T23:16:37.746Z,16.07
2019-05-20T23:19:06.602Z,25.10
2019-05-20T23:21:35.473Z,23.07
2019-05-20T23:24:04.378Z,18.50
2019-05-20T23:26:33.252Z,18.33
2019-05-20T23:29:02.125Z,24.73
2019-05-20T23:31:31.001Z,16.80
2019-05-20T23:34:12.203Z,13.17
2019-05-20T23:36:30.382Z,13.77
2019-05-20T23:38:59.290Z,17.30
2019-05-20T23:41:28.170Z,15.87
2019-05-20T23:43:57.010Z,14.57
2019-05-20T23:46:25.925Z,14.57
2019-05-20T23:48:54.777Z,14.73
2019-05-20T23:51:23.586Z,15.93
2019-05-20T23:53:52.457Z,14.50
2019-05-20T23:56:21.339Z,23.27
2019-05-20T23:58:50.177Z,12.67
